sensor_id;sensor_type;location;lat;lon;timestamp;pressure;altitude;pressure_sealevel;temperature;humidity
56292;BME280;54008;53.606;9.462;2023-01-10T03:02:24;101209.72;;;4.35;100.00
56292;BME280;54008;53.606;9.462;2023-01-10T03:05:18;101213.75;;;4.25;100.00
56292;BME280;54008;53.606;9.462;2023-01-10T03:08:00;101228.25;;;4.17;100.00
56292;BME280;54008;53.606;9.462;2023-01-10T03:10:36;101235.63;;;4.08;100.00
56292;BME280;54008;53.606;9.462;2023-01-10T03:13:10;101233.66;;;4.02;100.00
56292;BME280;54008;53.606;9.462;2023-01-10T03:15:39;101246.22;;;4.03;100.00
56292;BME280;54008;53.606;9.462;2023-01-10T03:18:20;101254.25;;;3.97;100.00
56292;BME280;54008;53.606;9.462;2023-01-10T03:20:48;101264.16;;;3.89;100.00
56292;BME280;54008;53.606;9.462;2023-01-10T03:23:17;101264.31;;;3.88;100.00
56292;BME280;54008;53.606;9.462;2023-01-10T03:25:46;101270.13;;;3.85;100.00
56292;BME280;54008;53.606;9.462;2023-01-10T03:28:18;101280.66;;;3.80;100.00
56292;BME280;54008;53.606;9.462;2023-01-10T03:30:50;101292.69;;;3.85;100.00
56292;BME280;54008;53.606;9.462;2023-01-10T03:33:20;101303.19;;;3.88;100.00
56292;BME280;54008;53.606;9.462;2023-01-10T03:38:55;101315.94;;;3.80;100.00
56292;BME280;54008;53.606;9.462;2023-01-10T03:44:36;101331.88;;;3.83;100.00
56292;BME280;54008;53.606;9.462;2023-01-10T03:49:48;101353.59;;;3.83;100.00
56292;BME280;54008;53.606;9.462;2023-01-10T03:52:16;101360.06;;;3.82;100.00
56292;BME280;54008;53.606;9.462;2023-01-10T03:54:43;101368.56;;;3.79;100.00
56292;BME280;54008;53.606;9.462;2023-01-10T03:57:21;101382.31;;;3.77;100.00
56292;BME280;54008;53.606;9.462;2023-01-10T03:59:51;101381.41;;;3.85;100.00
56292;BME280;54008;53.606;9.462;2023-01-10T04:02:17;101389.16;;;3.88;100.00
56292;BME280;54008;53.606;9.462;2023-01-10T04:04:42;101395.97;;;3.92;100.00
56292;BME280;54008;53.606;9.462;2023-01-10T04:07:08;101405.03;;;3.99;100.00
56292;BME280;54008;53.606;9.462;2023-01-10T04:09:33;101413.69;;;4.03;100.00
56292;BME280;54008;53.606;9.462;2023-01-10T04:11:58;101417.28;;;4.03;100.00
56292;BME280;54008;53.606;9.462;2023-01-10T04:14:23;101423.47;;;4.12;100.00
56292;BME280;54008;53.606;9.462;2023-01-10T04:16:49;101425.84;;;4.15;100.00
56292;BME280;54008;53.606;9.462;2023-01-10T04:19:14;101437.00;;;4.20;100.00
56292;BME280;54008;53.606;9.462;2023-01-10T04:21:39;101432.41;;;4.21;100.00
56292;BME280;54008;53.606;9.462;2023-01-10T04:24:05;101442.22;;;4.22;100.00
56292;BME280;54008;53.606;9.462;2023-01-10T04:26:30;101443.75;;;4.24;100.00
56292;BME280;54008;53.606;9.462;2023-01-10T04:28:56;101441.88;;;4.25;100.00
56292;BME280;54008;53.606;9.462;2023-01-10T04:31:21;101445.63;;;4.24;100.00
56292;BME280;54008;53.606;9.462;2023-01-10T04:33:47;101449.03;;;4.26;100.00
56292;BME280;54008;53.606;9.462;2023-01-10T04:36:12;101454.81;;;4.23;100.00
56292;BME280;54008;53.606;9.462;2023-01-10T04:38:38;101462.41;;;4.27;100.00
56292;BME280;54008;53.606;9.462;2023-01-10T04:41:03;101465.13;;;4.27;100.00
56292;BME280;54008;53.606;9.462;2023-01-10T04:43:28;101466.66;;;4.30;100.00
56292;BME280;54008;53.606;9.462;2023-01-10T04:45:54;101475.78;;;4.29;100.00
56292;BME280;54008;53.606;9.462;2023-01-10T04:48:19;101484.63;;;4.31;100.00
56292;BME280;54008;53.606;9.462;2023-01-10T04:50:49;101485.34;;;4.25;100.00
56292;BME280;54008;53.606;9.462;2023-01-10T04:53:14;101505.03;;;4.27;100.00
56292;BME280;54008;53.606;9.462;2023-01-10T04:55:40;101508.94;;;4.24;100.00
56292;BME280;54008;53.606;9.462;2023-01-10T04:58:05;101505.38;;;4.24;100.00
56292;BME280;54008;53.606;9.462;2023-01-10T05:00:30;101508.28;;;4.22;100.00
56292;BME280;54008;53.606;9.462;2023-01-10T05:02:56;101512.53;;;4.17;100.00
56292;BME280;54008;53.606;9.462;2023-01-10T05:05:22;101511.56;;;4.09;100.00
56292;BME280;54008;53.606;9.462;2023-01-10T05:07:48;101520.44;;;4.03;100.00
56292;BME280;54008;53.606;9.462;2023-01-10T05:10:13;101513.28;;;4.02;100.00
56292;BME280;54008;53.606;9.462;2023-01-10T05:12:39;101516.53;;;3.98;100.00
56292;BME280;54008;53.606;9.462;2023-01-10T05:15:05;101525.09;;;3.86;100.00
56292;BME280;54008;53.606;9.462;2023-01-10T05:17:30;101521.53;;;3.86;100.00
56292;BME280;54008;53.606;9.462;2023-01-10T05:19:55;101530.84;;;3.83;100.00
56292;BME280;54008;53.606;9.462;2023-01-10T05:22:21;101536.47;;;3.82;100.00
56292;BME280;54008;53.606;9.462;2023-01-10T05:24:46;101540.19;;;3.81;100.00
56292;BME280;54008;53.606;9.462;2023-01-10T05:27:11;101552.06;;;3.80;100.00
56292;BME280;54008;53.606;9.462;2023-01-10T05:29:36;101551.06;;;3.73;100.00
56292;BME280;54008;53.606;9.462;2023-01-10T05:32:02;101557.56;;;3.63;100.00
56292;BME280;54008;53.606;9.462;2023-01-10T05:34:27;101559.59;;;3.61;100.00
56292;BME280;54008;53.606;9.462;2023-01-10T05:36:52;101562.66;;;3.58;100.00
56292;BME280;54008;53.606;9.462;2023-01-10T05:39:18;101569.09;;;3.57;100.00
56292;BME280;54008;53.606;9.462;2023-01-10T05:41:43;101576.22;;;3.50;100.00
56292;BME280;54008;53.606;9.462;2023-01-10T05:47:05;101565.38;;;3.50;100.00
56292;BME280;54008;53.606;9.462;2023-01-10T05:49:30;101580.31;;;3.46;100.00
56292;BME280;54008;53.606;9.462;2023-01-10T05:51:56;101570.81;;;3.42;100.00
56292;BME280;54008;53.606;9.462;2023-01-10T05:54:21;101575.75;;;3.38;100.00
56292;BME280;54008;53.606;9.462;2023-01-10T05:56:46;101580.34;;;3.38;100.00
56292;BME280;54008;53.606;9.462;2023-01-10T05:59:11;101587.44;;;3.39;100.00
56292;BME280;54008;53.606;9.462;2023-01-10T06:01:37;101587.13;;;3.34;100.00
56292;BME280;54008;53.606;9.462;2023-01-10T06:04:02;101598.31;;;3.31;100.00
56292;BME280;54008;53.606;9.462;2023-01-10T06:06:27;101597.66;;;3.29;100.00
56292;BME280;54008;53.606;9.462;2023-01-10T06:08:53;101613.91;;;3.29;100.00
56292;BME280;54008;53.606;9.462;2023-01-10T06:11:20;101614.91;;;3.28;100.00
56292;BME280;54008;53.606;9.462;2023-01-10T06:13:45;101618.47;;;3.28;100.00
56292;BME280;54008;53.606;9.462;2023-01-10T06:16:12;101624.91;;;3.27;100.00
56292;BME280;54008;53.606;9.462;2023-01-10T06:18:38;101634.59;;;3.22;100.00
56292;BME280;54008;53.606;9.462;2023-01-10T06:21:03;101632.22;;;3.10;100.00
56292;BME280;54008;53.606;9.462;2023-01-10T06:23:28;101647.97;;;3.07;100.00
56292;BME280;54008;53.606;9.462;2023-01-10T06:25:54;101652.88;;;3.03;100.00
56292;BME280;54008;53.606;9.462;2023-01-10T06:28:19;101646.09;;;2.99;100.00
56292;BME280;54008;53.606;9.462;2023-01-10T06:30:45;101659.97;;;3.04;100.00
56292;BME280;54008;53.606;9.462;2023-01-10T06:33:10;101664.56;;;3.04;100.00
56292;BME280;54008;53.606;9.462;2023-01-10T06:35:36;101671.34;;;3.08;100.00
56292;BME280;54008;53.606;9.462;2023-01-10T06:38:01;101670.69;;;3.22;100.00
56292;BME280;54008;53.606;9.462;2023-01-10T06:40:27;101672.69;;;3.20;100.00
56292;BME280;54008;53.606;9.462;2023-01-10T06:42:53;101686.97;;;3.30;100.00
56292;BME280;54008;53.606;9.462;2023-01-10T06:45:19;101697.97;;;3.37;100.00
56292;BME280;54008;53.606;9.462;2023-01-10T06:47:44;101694.75;;;3.42;100.00
56292;BME280;54008;53.606;9.462;2023-01-10T06:50:10;101692.75;;;3.44;100.00
56292;BME280;54008;53.606;9.462;2023-01-10T06:52:36;101703.22;;;3.47;100.00
56292;BME280;54008;53.606;9.462;2023-01-10T06:55:02;101713.22;;;3.46;100.00
56292;BME280;54008;53.606;9.462;2023-01-10T06:57:27;101710.53;;;3.38;100.00
56292;BME280;54008;53.606;9.462;2023-01-10T06:59:53;101710.34;;;3.39;100.00
56292;BME280;54008;53.606;9.462;2023-01-10T07:02:18;101705.25;;;3.28;100.00
56292;BME280;54008;53.606;9.462;2023-01-10T07:04:43;101710.16;;;3.25;100.00
56292;BME280;54008;53.606;9.462;2023-01-10T07:07:09;101713.38;;;3.20;100.00
56292;BME280;54008;53.606;9.462;2023-01-10T07:09:34;101713.03;;;3.07;100.00
56292;BME280;54008;53.606;9.462;2023-01-10T07:11:59;101707.09;;;3.03;100.00
56292;BME280;54008;53.606;9.462;2023-01-10T07:14:24;101705.03;;;3.05;100.00
56292;BME280;54008;53.606;9.462;2023-01-10T07:16:50;101712.50;;;3.03;100.00
56292;BME280;54008;53.606;9.462;2023-01-10T07:19:15;101711.16;;;2.99;100.00
56292;BME280;54008;53.606;9.462;2023-01-10T07:21:42;101720.47;;;3.05;100.00
56292;BME280;54008;53.606;9.462;2023-01-10T07:24:07;101731.19;;;3.14;100.00
56292;BME280;54008;53.606;9.462;2023-01-10T07:26:32;101722.69;;;3.09;100.00
56292;BME280;54008;53.606;9.462;2023-01-10T07:28:58;101731.00;;;3.08;100.00
56292;BME280;54008;53.606;9.462;2023-01-10T07:31:23;101738.63;;;3.12;100.00
56292;BME280;54008;53.606;9.462;2023-01-10T07:33:52;101741.69;;;3.18;100.00
56292;BME280;54008;53.606;9.462;2023-01-10T07:36:17;101751.53;;;3.27;100.00
56292;BME280;54008;53.606;9.462;2023-01-10T07:38:43;101752.75;;;3.32;100.00
56292;BME280;54008;53.606;9.462;2023-01-10T07:41:08;101755.94;;;3.36;100.00
56292;BME280;54008;53.606;9.462;2023-01-10T07:43:34;101769.03;;;3.40;100.00
56292;BME280;54008;53.606;9.462;2023-01-10T07:46:01;101763.94;;;3.46;100.00
56292;BME280;54008;53.606;9.462;2023-01-10T07:48:26;101777.00;;;3.50;100.00
56292;BME280;54008;53.606;9.462;2023-01-10T07:50:59;101777.81;;;3.51;100.00
56292;BME280;54008;53.606;9.462;2023-01-10T07:53:26;101787.69;;;3.52;100.00
56292;BME280;54008;53.606;9.462;2023-01-10T07:55:51;101791.44;;;3.59;100.00
56292;BME280;54008;53.606;9.462;2023-01-10T07:58:17;101793.63;;;3.55;100.00
56292;BME280;54008;53.606;9.462;2023-01-10T08:00:43;101793.13;;;3.52;100.00
56292;BME280;54008;53.606;9.462;2023-01-10T08:03:10;101803.97;;;3.52;100.00
56292;BME280;54008;53.606;9.462;2023-01-10T08:07:54;101780.72;;;3.49;100.00
56292;BME280;54008;53.606;9.462;2023-01-10T08:10:23;101789.19;;;3.46;100.00
56292;BME280;54008;53.606;9.462;2023-01-10T08:12:49;101788.88;;;3.49;100.00
56292;BME280;54008;53.606;9.462;2023-01-10T08:15:15;101806.34;;;3.55;100.00
56292;BME280;54008;53.606;9.462;2023-01-10T08:17:40;101804.13;;;3.50;100.00
56292;BME280;54008;53.606;9.462;2023-01-10T08:20:06;101802.09;;;3.44;100.00
56292;BME280;54008;53.606;9.462;2023-01-10T08:22:31;101803.78;;;3.45;100.00
56292;BME280;54008;53.606;9.462;2023-01-10T08:24:56;101812.59;;;3.47;100.00
56292;BME280;54008;53.606;9.462;2023-01-10T08:27:22;101824.63;;;3.45;100.00
56292;BME280;54008;53.606;9.462;2023-01-10T08:29:47;101826.19;;;3.55;100.00
56292;BME280;54008;53.606;9.462;2023-01-10T08:32:12;101836.88;;;3.65;100.00
56292;BME280;54008;53.606;9.462;2023-01-10T08:34:37;101831.63;;;3.72;100.00
56292;BME280;54008;53.606;9.462;2023-01-10T08:37:03;101839.78;;;3.80;100.00
56292;BME280;54008;53.606;9.462;2023-01-10T08:39:28;101841.84;;;3.86;100.00
56292;BME280;54008;53.606;9.462;2023-01-10T08:41:56;101842.16;;;3.91;100.00
56292;BME280;54008;53.606;9.462;2023-01-10T08:44:22;101837.59;;;4.00;100.00
56292;BME280;54008;53.606;9.462;2023-01-10T08:46:47;101818.94;;;4.05;100.00
56292;BME280;54008;53.606;9.462;2023-01-10T08:49:13;101811.63;;;4.05;100.00
56292;BME280;54008;53.606;9.462;2023-01-10T08:51:38;101806.88;;;3.99;100.00
56292;BME280;54008;53.606;9.462;2023-01-10T08:54:03;101810.94;;;3.95;100.00
56292;BME280;54008;53.606;9.462;2023-01-10T08:56:29;101810.59;;;3.98;100.00
56292;BME280;54008;53.606;9.462;2023-01-10T08:58:54;101813.84;;;3.94;100.00
56292;BME280;54008;53.606;9.462;2023-01-10T09:01:19;101801.63;;;3.89;100.00
56292;BME280;54008;53.606;9.462;2023-01-10T09:03:45;101801.97;;;3.86;100.00
56292;BME280;54008;53.606;9.462;2023-01-10T09:06:10;101810.28;;;3.85;100.00
56292;BME280;54008;53.606;9.462;2023-01-10T09:08:36;101795.69;;;3.86;100.00
56292;BME280;54008;53.606;9.462;2023-01-10T09:11:02;101798.41;;;3.94;100.00
56292;BME280;54008;53.606;9.462;2023-01-10T09:13:28;101807.22;;;3.96;100.00
56292;BME280;54008;53.606;9.462;2023-01-10T09:18:07;101821.50;;;4.15;100.00
56292;BME280;54008;53.606;9.462;2023-01-10T09:20:34;101825.53;;;4.27;100.00
56292;BME280;54008;53.606;9.462;2023-01-10T09:23:05;101834.72;;;4.34;100.00
56292;BME280;54008;53.606;9.462;2023-01-10T09:25:30;101842.16;;;4.40;100.00
56292;BME280;54008;53.606;9.462;2023-01-10T09:28:00;101845.56;;;4.42;100.00
56292;BME280;54008;53.606;9.462;2023-01-10T09:30:27;101850.31;;;4.48;100.00
56292;BME280;54008;53.606;9.462;2023-01-10T09:32:54;101861.50;;;4.53;100.00
56292;BME280;54008;53.606;9.462;2023-01-10T09:35:20;101865.56;;;4.57;100.00
56292;BME280;54008;53.606;9.462;2023-01-10T09:37:46;101866.25;;;4.59;100.00
56292;BME280;54008;53.606;9.462;2023-01-10T09:51:34;101841.41;;;4.79;100.00
56292;BME280;54008;53.606;9.462;2023-01-10T09:54:03;101832.72;;;4.83;100.00
56292;BME280;54008;53.606;9.462;2023-01-10T09:56:31;101831.88;;;4.83;100.00
56292;BME280;54008;53.606;9.462;2023-01-10T09:58:58;101829.16;;;4.83;100.00
56292;BME280;54008;53.606;9.462;2023-01-10T10:01:31;101818.59;;;4.88;100.00
56292;BME280;54008;53.606;9.462;2023-01-10T10:06:31;101807.72;;;4.88;100.00
56292;BME280;54008;53.606;9.462;2023-01-10T10:08:58;101793.59;;;4.93;100.00
56292;BME280;54008;53.606;9.462;2023-01-10T10:17:05;101767.88;;;5.03;100.00
56292;BME280;54008;53.606;9.462;2023-01-10T10:19:59;101765.84;;;5.05;100.00
56292;BME280;54008;53.606;9.462;2023-01-10T10:33:42;101744.06;;;5.37;100.00
56292;BME280;54008;53.606;9.462;2023-01-10T10:36:23;101733.00;;;5.38;100.00
56292;BME280;54008;53.606;9.462;2023-01-10T10:38:50;101730.56;;;5.43;100.00
56292;BME280;54008;53.606;9.462;2023-01-10T10:41:39;101736.84;;;5.44;100.00
56292;BME280;54008;53.606;9.462;2023-01-10T10:46:48;101732.44;;;5.43;100.00
56292;BME280;54008;53.606;9.462;2023-01-10T10:49:20;101729.19;;;5.47;100.00
56292;BME280;54008;53.606;9.462;2023-01-10T10:51:50;101724.78;;;5.46;100.00
56292;BME280;54008;53.606;9.462;2023-01-10T11:52:22;101681.22;;;5.84;100.00
56292;BME280;54008;53.606;9.462;2023-01-10T11:54:50;101673.91;;;5.84;100.00
56292;BME280;54008;53.606;9.462;2023-01-10T11:59:39;101674.38;;;5.88;100.00
56292;BME280;54008;53.606;9.462;2023-01-10T12:02:24;101661.81;;;5.87;100.00
56292;BME280;54008;53.606;9.462;2023-01-10T12:04:51;101669.78;;;5.89;100.00
56292;BME280;54008;53.606;9.462;2023-01-10T12:07:17;101670.63;;;5.89;100.00
56292;BME280;54008;53.606;9.462;2023-01-10T12:09:57;101670.63;;;5.89;100.00
56292;BME280;54008;53.606;9.462;2023-01-10T12:12:25;101674.56;;;5.87;100.00
56292;BME280;54008;53.606;9.462;2023-01-10T12:14:53;101669.84;;;5.80;100.00
56292;BME280;54008;53.606;9.462;2023-01-10T12:19:46;101683.28;;;5.82;100.00
56292;BME280;54008;53.606;9.462;2023-01-10T12:22:14;101678.88;;;5.81;100.00
56292;BME280;54008;53.606;9.462;2023-01-10T12:24:42;101679.91;;;5.80;100.00
56292;BME280;54008;53.606;9.462;2023-01-10T12:27:12;101681.22;;;5.84;100.00
56292;BME280;54008;53.606;9.462;2023-01-10T12:30:05;101681.22;;;5.84;100.00
56292;BME280;54008;53.606;9.462;2023-01-10T12:32:43;101682.75;;;5.87;100.00
56292;BME280;54008;53.606;9.462;2023-01-10T12:35:19;101687.31;;;5.86;100.00
56292;BME280;54008;53.606;9.462;2023-01-10T12:38:02;101678.97;;;5.88;100.00
56292;BME280;54008;53.606;9.462;2023-01-10T12:40:57;101681.84;;;5.94;100.00
56292;BME280;54008;53.606;9.462;2023-01-10T12:43:34;101673.28;;;5.97;100.00
56292;BME280;54008;53.606;9.462;2023-01-10T12:46:49;101665.09;;;5.97;100.00
56292;BME280;54008;53.606;9.462;2023-01-10T12:49:21;101659.97;;;6.02;100.00
56292;BME280;54008;53.606;9.462;2023-01-10T12:51:48;101665.41;;;6.02;100.00
56292;BME280;54008;53.606;9.462;2023-01-10T12:54:20;101669.44;;;6.06;100.00
56292;BME280;54008;53.606;9.462;2023-01-10T12:56:47;101670.97;;;6.09;100.00
56292;BME280;54008;53.606;9.462;2023-01-10T12:59:25;101663.28;;;6.13;100.00
56292;BME280;54008;53.606;9.462;2023-01-10T13:01:56;101669.09;;;6.10;100.00
56292;BME280;54008;53.606;9.462;2023-01-10T13:04:26;101664.28;;;6.12;100.00
56292;BME280;54008;53.606;9.462;2023-01-10T13:06:53;101665.59;;;6.16;100.00
56292;BME280;54008;53.606;9.462;2023-01-10T13:09:24;101661.28;;;6.06;100.00
56292;BME280;54008;53.606;9.462;2023-01-10T13:12:14;101665.22;;;6.04;100.00
56292;BME280;54008;53.606;9.462;2023-01-10T13:14:58;101672.53;;;6.03;100.00
56292;BME280;54008;53.606;9.462;2023-01-10T13:22:39;101663.78;;;5.93;100.00
56292;BME280;54008;53.606;9.462;2023-01-10T13:25:05;101664.16;;;5.90;100.00
56292;BME280;54008;53.606;9.462;2023-01-10T13:27:42;101673.69;;;5.86;100.00
56292;BME280;54008;53.606;9.462;2023-01-10T13:30:24;101682.06;;;5.84;100.00
56292;BME280;54008;53.606;9.462;2023-01-10T13:32:59;101678.22;;;5.79;100.00
56292;BME280;54008;53.606;9.462;2023-01-10T13:35:25;101689.97;;;5.79;100.00
56292;BME280;54008;53.606;9.462;2023-01-10T13:37:54;101686.75;;;5.76;100.00
56292;BME280;54008;53.606;9.462;2023-01-10T13:40:23;101686.75;;;5.76;100.00
56292;BME280;54008;53.606;9.462;2023-01-10T13:51:21;101678.28;;;5.71;100.00
56292;BME280;54008;53.606;9.462;2023-01-10T13:59:09;101690.88;;;5.72;100.00
56292;BME280;54008;53.606;9.462;2023-01-10T14:01:54;101687.75;;;5.75;100.00
56292;BME280;54008;53.606;9.462;2023-01-10T14:05:04;101679.13;;;5.71;100.00
56292;BME280;54008;53.606;9.462;2023-01-10T14:07:51;101690.19;;;5.70;100.00
56292;BME280;54008;53.606;9.462;2023-01-10T14:10:29;101679.88;;;5.65;100.00
56292;BME280;54008;53.606;9.462;2023-01-10T14:12:58;101679.41;;;5.62;100.00
56292;BME280;54008;53.606;9.462;2023-01-10T14:18:38;101665.78;;;5.62;100.00
56292;BME280;54008;53.606;9.462;2023-01-10T14:21:07;101654.22;;;5.59;100.00
56292;BME280;54008;53.606;9.462;2023-01-10T14:23:36;101641.16;;;5.55;100.00
56292;BME280;54008;53.606;9.462;2023-01-10T14:26:03;101636.94;;;5.52;100.00
56292;BME280;54008;53.606;9.462;2023-01-10T14:28:30;101632.25;;;5.46;100.00
56292;BME280;54008;53.606;9.462;2023-01-10T14:31:03;101632.41;;;5.45;100.00
56292;BME280;54008;53.606;9.462;2023-01-10T14:33:30;101627.88;;;5.37;100.00
56292;BME280;54008;53.606;9.462;2023-01-10T14:36:00;101629.13;;;5.34;100.00
56292;BME280;54008;53.606;9.462;2023-01-10T14:38:30;101633.31;;;5.37;100.00
56292;BME280;54008;53.606;9.462;2023-01-10T14:41:04;101630.53;;;5.30;100.00
56292;BME280;54008;53.606;9.462;2023-01-10T14:43:40;101626.00;;;5.23;100.00
56292;BME280;54008;53.606;9.462;2023-01-10T14:48:39;101622.94;;;5.18;100.00
56292;BME280;54008;53.606;9.462;2023-01-10T14:53:41;101605.59;;;5.19;100.00
56292;BME280;54008;53.606;9.462;2023-01-10T14:56:24;101599.88;;;5.14;100.00
56292;BME280;54008;53.606;9.462;2023-01-10T14:58:50;101599.88;;;5.14;100.00
56292;BME280;54008;53.606;9.462;2023-01-10T15:01:21;101599.75;;;5.07;100.00
56292;BME280;54008;53.606;9.462;2023-01-10T15:03:47;101599.63;;;5.00;100.00
56292;BME280;54008;53.606;9.462;2023-01-10T15:06:12;101597.94;;;4.99;100.00
56292;BME280;54008;53.606;9.462;2023-01-10T15:08:38;101594.19;;;5.00;100.00
56292;BME280;54008;53.606;9.462;2023-01-10T15:11:05;101595.91;;;5.01;100.00
56292;BME280;54008;53.606;9.462;2023-01-10T15:13:35;101594.19;;;5.00;100.00
56292;BME280;54008;53.606;9.462;2023-01-10T15:16:01;101597.28;;;4.97;100.00
56292;BME280;54008;53.606;9.462;2023-01-10T15:18:38;101598.97;;;4.98;100.00
56292;BME280;54008;53.606;9.462;2023-01-10T15:21:05;101603.72;;;4.96;100.00
56292;BME280;54008;53.606;9.462;2023-01-10T15:23:37;101605.81;;;4.94;100.00
56292;BME280;54008;53.606;9.462;2023-01-10T15:26:11;101605.47;;;4.89;100.00
56292;BME280;54008;53.606;9.462;2023-01-10T15:28:40;101608.19;;;4.89;100.00
56292;BME280;54008;53.606;9.462;2023-01-10T15:33:26;101607.91;;;4.84;100.00
56292;BME280;54008;53.606;9.462;2023-01-10T15:35:53;101586.69;;;4.79;100.00
56292;BME280;54008;53.606;9.462;2023-01-10T15:38:22;101595.69;;;4.80;100.00
56292;BME280;54008;53.606;9.462;2023-01-10T15:41:01;101589.72;;;4.84;100.00
56292;BME280;54008;53.606;9.462;2023-01-10T15:43:32;101583.44;;;4.84;100.00
56292;BME280;54008;53.606;9.462;2023-01-10T15:45:59;101591.59;;;4.84;100.00
56292;BME280;54008;53.606;9.462;2023-01-10T15:48:31;101598.41;;;4.80;100.00
56292;BME280;54008;53.606;9.462;2023-01-10T15:56:40;101579.69;;;4.85;100.00
56292;BME280;54008;53.606;9.462;2023-01-10T15:59:26;101588.53;;;4.87;100.00
56292;BME280;54008;53.606;9.462;2023-01-10T16:01:57;101594.66;;;4.81;100.00
56292;BME280;54008;53.606;9.462;2023-01-10T16:04:25;101605.53;;;4.81;100.00
56292;BME280;54008;53.606;9.462;2023-01-10T16:06:53;101610.97;;;4.81;100.00
56292;BME280;54008;53.606;9.462;2023-01-10T16:09:20;101620.84;;;4.82;100.00
56292;BME280;54008;53.606;9.462;2023-01-10T16:11:48;101623.19;;;4.85;100.00
56292;BME280;54008;53.606;9.462;2023-01-10T16:14:43;101610.97;;;4.81;100.00
56292;BME280;54008;53.606;9.462;2023-01-10T16:17:08;101603.50;;;4.83;100.00
56292;BME280;54008;53.606;9.462;2023-01-10T16:19:36;101600.94;;;4.81;100.00
56292;BME280;54008;53.606;9.462;2023-01-10T16:22:01;101604.34;;;4.83;100.00
56292;BME280;54008;53.606;9.462;2023-01-10T16:24:29;101607.25;;;4.82;100.00
56292;BME280;54008;53.606;9.462;2023-01-10T16:26:56;101607.25;;;4.82;100.00
56292;BME280;54008;53.606;9.462;2023-01-10T16:29:22;101601.13;;;4.80;100.00
56292;BME280;54008;53.606;9.462;2023-01-10T16:34:18;101590.19;;;4.88;100.00
56292;BME280;54008;53.606;9.462;2023-01-10T16:36:43;101581.06;;;4.81;100.00
56292;BME280;54008;53.606;9.462;2023-01-10T16:39:17;101574.63;;;4.82;100.00
56292;BME280;54008;53.606;9.462;2023-01-10T16:41:44;101563.75;;;4.82;100.00
56292;BME280;54008;53.606;9.462;2023-01-10T16:44:29;101557.28;;;4.83;100.00
56292;BME280;54008;53.606;9.462;2023-01-10T16:46:55;101552.88;;;4.82;100.00
56292;BME280;54008;53.606;9.462;2023-01-10T16:49:21;101558.81;;;4.85;100.00
56292;BME280;54008;53.606;9.462;2023-01-10T16:51:47;101554.56;;;4.83;100.00
